Jacksonville, Texas
Current Conditions -  °F | °C
As of 11:15 AM on Wednesday 26 Nov 2014 (Local Time) from KJSO Reporting Station
Clear Clear  
Wind Chill: 16°   Ceiling: Unl
Heat Index: 16°   Visibility: 10mi
Dew Point: -1°   Wind: 13mph
Humidity: 30%   Direction: 260°W
Pressure: 30.16"   Gusts: 20mph
Location:  31.96°N, 95.27°W
Report Text: KJSO 261715Z AUTO 26011G17KT 10SM CLR 16/M01 A3016 RMK AO2 T01651011
Loading
Personal Weather Stations






























Interactive Weather Map New forecast layout! Learn more

10-Day Weather Forecast

Advertisements
Track Severe Weather on mobile